sensor_id;sensor_type;location;lat;lon;timestamp;temperature;humidity
1614;DHT22;800;48.824;9.346;2024-02-28T00:01:51;14.50;55.10
1614;DHT22;800;48.824;9.346;2024-02-28T00:04:18;14.50;55.00
1614;DHT22;800;48.824;9.346;2024-02-28T00:06:44;14.50;55.00
1614;DHT22;800;48.824;9.346;2024-02-28T00:09:12;14.50;55.00
1614;DHT22;800;48.824;9.346;2024-02-28T00:11:43;14.50;55.00
1614;DHT22;800;48.824;9.346;2024-02-28T00:14:10;14.50;55.00
1614;DHT22;800;48.824;9.346;2024-02-28T00:16:36;14.50;55.00
1614;DHT22;800;48.824;9.346;2024-02-28T00:19:01;14.50;55.00
1614;DHT22;800;48.824;9.346;2024-02-28T00:21:27;14.50;55.30
1614;DHT22;800;48.824;9.346;2024-02-28T00:23:52;14.50;55.00
1614;DHT22;800;48.824;9.346;2024-02-28T00:26:18;14.50;55.00
1614;DHT22;800;48.824;9.346;2024-02-28T00:28:44;14.50;55.00
1614;DHT22;800;48.824;9.346;2024-02-28T00:31:10;14.50;55.00
1614;DHT22;800;48.824;9.346;2024-02-28T00:33:35;14.60;55.10
1614;DHT22;800;48.824;9.346;2024-02-28T00:36:01;14.50;54.90
1614;DHT22;800;48.824;9.346;2024-02-28T00:38:26;14.50;54.90
1614;DHT22;800;48.824;9.346;2024-02-28T00:40:53;14.50;54.90
1614;DHT22;800;48.824;9.346;2024-02-28T00:43:18;14.50;55.00
1614;DHT22;800;48.824;9.346;2024-02-28T00:45:44;14.50;55.10
1614;DHT22;800;48.824;9.346;2024-02-28T00:48:09;14.50;55.20
1614;DHT22;800;48.824;9.346;2024-02-28T00:50:35;14.50;55.20
1614;DHT22;800;48.824;9.346;2024-02-28T00:53:00;14.40;55.10
1614;DHT22;800;48.824;9.346;2024-02-28T00:55:26;14.50;55.30
1614;DHT22;800;48.824;9.346;2024-02-28T00:57:52;14.50;55.30
1614;DHT22;800;48.824;9.346;2024-02-28T01:00:17;14.50;55.30
1614;DHT22;800;48.824;9.346;2024-02-28T01:02:43;14.50;55.30
1614;DHT22;800;48.824;9.346;2024-02-28T01:05:08;14.50;55.30
1614;DHT22;800;48.824;9.346;2024-02-28T01:07:34;14.50;55.30
1614;DHT22;800;48.824;9.346;2024-02-28T01:10:00;14.50;55.30
1614;DHT22;800;48.824;9.346;2024-02-28T01:12:25;14.40;55.20
1614;DHT22;800;48.824;9.346;2024-02-28T01:14:51;14.30;55.40
1614;DHT22;800;48.824;9.346;2024-02-28T01:17:16;14.30;55.60
1614;DHT22;800;48.824;9.346;2024-02-28T01:19:42;14.30;55.50
1614;DHT22;800;48.824;9.346;2024-02-28T01:22:07;14.40;55.50
1614;DHT22;800;48.824;9.346;2024-02-28T01:24:34;14.40;55.40
1614;DHT22;800;48.824;9.346;2024-02-28T01:27:00;14.40;55.40
1614;DHT22;800;48.824;9.346;2024-02-28T01:29:25;14.40;55.30
1614;DHT22;800;48.824;9.346;2024-02-28T01:31:51;14.50;55.40
1614;DHT22;800;48.824;9.346;2024-02-28T01:34:17;14.50;55.50
1614;DHT22;800;48.824;9.346;2024-02-28T01:36:42;14.50;55.50
1614;DHT22;800;48.824;9.346;2024-02-28T01:39:08;14.50;55.50
1614;DHT22;800;48.824;9.346;2024-02-28T01:41:33;14.50;55.50
1614;DHT22;800;48.824;9.346;2024-02-28T01:43:59;14.50;55.50
1614;DHT22;800;48.824;9.346;2024-02-28T01:46:28;14.50;55.40
1614;DHT22;800;48.824;9.346;2024-02-28T01:48:55;14.50;55.40
1614;DHT22;800;48.824;9.346;2024-02-28T01:51:23;14.50;55.40
1614;DHT22;800;48.824;9.346;2024-02-28T01:53:50;14.50;55.40
1614;DHT22;800;48.824;9.346;2024-02-28T01:56:16;14.50;55.40
1614;DHT22;800;48.824;9.346;2024-02-28T01:58:44;14.50;55.30
1614;DHT22;800;48.824;9.346;2024-02-28T02:01:11;14.40;54.90
1614;DHT22;800;48.824;9.346;2024-02-28T02:03:37;14.40;55.00
1614;DHT22;800;48.824;9.346;2024-02-28T02:06:03;14.40;54.90
1614;DHT22;800;48.824;9.346;2024-02-28T02:08:29;14.40;55.00
1614;DHT22;800;48.824;9.346;2024-02-28T02:10:55;14.40;54.90
1614;DHT22;800;48.824;9.346;2024-02-28T02:13:21;14.40;54.90
1614;DHT22;800;48.824;9.346;2024-02-28T02:15:47;14.40;55.00
1614;DHT22;800;48.824;9.346;2024-02-28T02:18:12;14.40;54.90
1614;DHT22;800;48.824;9.346;2024-02-28T02:20:43;14.40;54.90
1614;DHT22;800;48.824;9.346;2024-02-28T02:23:09;14.30;54.90
1614;DHT22;800;48.824;9.346;2024-02-28T02:25:42;14.30;55.00
1614;DHT22;800;48.824;9.346;2024-02-28T02:28:08;14.30;55.00
1614;DHT22;800;48.824;9.346;2024-02-28T02:30:33;14.30;54.90
1614;DHT22;800;48.824;9.346;2024-02-28T02:32:59;14.20;55.20
1614;DHT22;800;48.824;9.346;2024-02-28T02:35:24;14.20;55.10
1614;DHT22;800;48.824;9.346;2024-02-28T02:37:50;14.20;55.00
1614;DHT22;800;48.824;9.346;2024-02-28T02:40:16;14.30;55.00
1614;DHT22;800;48.824;9.346;2024-02-28T02:42:41;14.30;54.90
1614;DHT22;800;48.824;9.346;2024-02-28T02:45:07;14.20;54.90
1614;DHT22;800;48.824;9.346;2024-02-28T02:47:33;14.30;54.90
1614;DHT22;800;48.824;9.346;2024-02-28T02:49:58;14.30;54.90
1614;DHT22;800;48.824;9.346;2024-02-28T02:52:24;14.20;54.60
1614;DHT22;800;48.824;9.346;2024-02-28T02:54:49;14.20;54.40
1614;DHT22;800;48.824;9.346;2024-02-28T02:57:15;14.20;54.30
1614;DHT22;800;48.824;9.346;2024-02-28T02:59:40;14.10;54.30
1614;DHT22;800;48.824;9.346;2024-02-28T03:02:06;14.20;54.20
1614;DHT22;800;48.824;9.346;2024-02-28T03:04:31;14.20;54.30
1614;DHT22;800;48.824;9.346;2024-02-28T03:06:57;14.20;54.30
1614;DHT22;800;48.824;9.346;2024-02-28T03:09:23;14.20;54.30
1614;DHT22;800;48.824;9.346;2024-02-28T03:11:48;14.30;54.40
1614;DHT22;800;48.824;9.346;2024-02-28T03:14:14;14.30;54.50
1614;DHT22;800;48.824;9.346;2024-02-28T03:16:42;14.30;54.60
1614;DHT22;800;48.824;9.346;2024-02-28T03:19:10;14.30;54.60
1614;DHT22;800;48.824;9.346;2024-02-28T03:21:35;14.30;54.60
1614;DHT22;800;48.824;9.346;2024-02-28T03:24:01;14.30;54.60
1614;DHT22;800;48.824;9.346;2024-02-28T03:26:27;14.30;54.60
1614;DHT22;800;48.824;9.346;2024-02-28T03:28:52;14.30;54.60
1614;DHT22;800;48.824;9.346;2024-02-28T03:31:18;14.30;54.50
1614;DHT22;800;48.824;9.346;2024-02-28T03:33:43;14.30;54.50
1614;DHT22;800;48.824;9.346;2024-02-28T03:36:09;14.30;54.50
1614;DHT22;800;48.824;9.346;2024-02-28T03:38:34;14.30;54.50
1614;DHT22;800;48.824;9.346;2024-02-28T03:41:01;14.30;54.60
1614;DHT22;800;48.824;9.346;2024-02-28T03:43:27;14.30;54.50
1614;DHT22;800;48.824;9.346;2024-02-28T03:45:53;14.30;54.50
1614;DHT22;800;48.824;9.346;2024-02-28T03:48:18;14.30;54.50
1614;DHT22;800;48.824;9.346;2024-02-28T03:50:44;14.30;54.60
1614;DHT22;800;48.824;9.346;2024-02-28T03:53:09;14.30;54.60
1614;DHT22;800;48.824;9.346;2024-02-28T03:55:35;14.30;54.60
1614;DHT22;800;48.824;9.346;2024-02-28T03:58:00;14.20;54.60
1614;DHT22;800;48.824;9.346;2024-02-28T04:00:26;14.20;54.70
1614;DHT22;800;48.824;9.346;2024-02-28T04:02:51;14.20;54.70
1614;DHT22;800;48.824;9.346;2024-02-28T04:05:17;14.20;54.70
1614;DHT22;800;48.824;9.346;2024-02-28T04:07:43;14.20;54.80
1614;DHT22;800;48.824;9.346;2024-02-28T04:10:08;14.20;54.70
1614;DHT22;800;48.824;9.346;2024-02-28T04:12:36;14.20;54.80
1614;DHT22;800;48.824;9.346;2024-02-28T04:15:02;14.20;54.90
1614;DHT22;800;48.824;9.346;2024-02-28T04:17:28;14.10;54.90
1614;DHT22;800;48.824;9.346;2024-02-28T04:19:53;14.10;54.90
1614;DHT22;800;48.824;9.346;2024-02-28T04:22:19;14.20;54.90
1614;DHT22;800;48.824;9.346;2024-02-28T04:24:44;14.10;54.80
1614;DHT22;800;48.824;9.346;2024-02-28T04:27:10;14.10;54.90
1614;DHT22;800;48.824;9.346;2024-02-28T04:29:37;14.10;54.90
1614;DHT22;800;48.824;9.346;2024-02-28T04:32:03;14.00;55.00
1614;DHT22;800;48.824;9.346;2024-02-28T04:34:29;14.10;55.20
1614;DHT22;800;48.824;9.346;2024-02-28T04:36:55;14.10;55.10
1614;DHT22;800;48.824;9.346;2024-02-28T04:39:20;14.10;55.10
1614;DHT22;800;48.824;9.346;2024-02-28T04:41:46;14.10;55.00
1614;DHT22;800;48.824;9.346;2024-02-28T04:44:11;14.10;55.10
1614;DHT22;800;48.824;9.346;2024-02-28T04:46:37;14.10;55.00
1614;DHT22;800;48.824;9.346;2024-02-28T04:49:02;14.10;55.00
1614;DHT22;800;48.824;9.346;2024-02-28T04:51:28;14.00;55.10
1614;DHT22;800;48.824;9.346;2024-02-28T04:53:53;14.00;55.30
1614;DHT22;800;48.824;9.346;2024-02-28T04:56:19;14.00;55.20
1614;DHT22;800;48.824;9.346;2024-02-28T04:58:45;14.00;55.20
1614;DHT22;800;48.824;9.346;2024-02-28T05:01:10;14.00;55.20
1614;DHT22;800;48.824;9.346;2024-02-28T05:03:37;14.00;55.20
1614;DHT22;800;48.824;9.346;2024-02-28T05:06:03;14.00;55.20
1614;DHT22;800;48.824;9.346;2024-02-28T05:08:29;13.90;55.30
1614;DHT22;800;48.824;9.346;2024-02-28T05:10:54;13.90;55.50
1614;DHT22;800;48.824;9.346;2024-02-28T05:13:20;13.90;55.40
1614;DHT22;800;48.824;9.346;2024-02-28T05:15:47;13.90;55.60
1614;DHT22;800;48.824;9.346;2024-02-28T05:18:13;13.80;55.40
1614;DHT22;800;48.824;9.346;2024-02-28T05:20:38;13.80;55.50
1614;DHT22;800;48.824;9.346;2024-02-28T05:23:04;13.80;55.70
1614;DHT22;800;48.824;9.346;2024-02-28T05:25:30;13.80;55.70
1614;DHT22;800;48.824;9.346;2024-02-28T05:27:56;13.80;55.90
1614;DHT22;800;48.824;9.346;2024-02-28T05:30:21;13.70;55.90
1614;DHT22;800;48.824;9.346;2024-02-28T05:32:47;13.60;56.00
1614;DHT22;800;48.824;9.346;2024-02-28T05:35:12;13.60;56.40
1614;DHT22;800;48.824;9.346;2024-02-28T05:37:38;13.60;56.40
1614;DHT22;800;48.824;9.346;2024-02-28T05:40:07;13.50;56.30
1614;DHT22;800;48.824;9.346;2024-02-28T05:42:32;13.50;56.50
1614;DHT22;800;48.824;9.346;2024-02-28T05:44:58;13.40;56.50
1614;DHT22;800;48.824;9.346;2024-02-28T05:47:23;13.30;56.90
1614;DHT22;800;48.824;9.346;2024-02-28T05:49:50;13.30;57.10
1614;DHT22;800;48.824;9.346;2024-02-28T05:52:15;13.30;56.90
1614;DHT22;800;48.824;9.346;2024-02-28T05:54:41;13.40;56.70
1614;DHT22;800;48.824;9.346;2024-02-28T05:57:07;13.40;56.60
1614;DHT22;800;48.824;9.346;2024-02-28T05:59:32;13.30;56.60
1614;DHT22;800;48.824;9.346;2024-02-28T06:01:58;13.40;56.50
1614;DHT22;800;48.824;9.346;2024-02-28T06:04:24;13.30;56.70
1614;DHT22;800;48.824;9.346;2024-02-28T06:06:49;13.20;56.70
1614;DHT22;800;48.824;9.346;2024-02-28T06:09:16;13.30;56.90
1614;DHT22;800;48.824;9.346;2024-02-28T06:11:41;13.20;56.60
1614;DHT22;800;48.824;9.346;2024-02-28T06:14:07;13.30;56.60
1614;DHT22;800;48.824;9.346;2024-02-28T06:16:32;13.30;56.60
1614;DHT22;800;48.824;9.346;2024-02-28T06:18:58;13.20;56.60
1614;DHT22;800;48.824;9.346;2024-02-28T06:21:23;13.30;56.70
1614;DHT22;800;48.824;9.346;2024-02-28T06:23:49;13.30;56.60
1614;DHT22;800;48.824;9.346;2024-02-28T06:26:15;13.40;56.60
1614;DHT22;800;48.824;9.346;2024-02-28T06:28:43;13.30;56.60
1614;DHT22;800;48.824;9.346;2024-02-28T06:31:17;13.40;56.80
1614;DHT22;800;48.824;9.346;2024-02-28T06:33:43;13.50;56.50
1614;DHT22;800;48.824;9.346;2024-02-28T06:36:09;13.60;56.20
1614;DHT22;800;48.824;9.346;2024-02-28T06:38:35;13.60;56.00
1614;DHT22;800;48.824;9.346;2024-02-28T06:41:04;13.70;55.90
1614;DHT22;800;48.824;9.346;2024-02-28T06:43:33;13.70;55.90
1614;DHT22;800;48.824;9.346;2024-02-28T06:45:59;13.70;55.80
1614;DHT22;800;48.824;9.346;2024-02-28T06:48:25;13.70;55.70
1614;DHT22;800;48.824;9.346;2024-02-28T06:50:50;13.70;55.50
1614;DHT22;800;48.824;9.346;2024-02-28T06:53:16;13.70;55.50
1614;DHT22;800;48.824;9.346;2024-02-28T06:55:42;13.70;55.60
1614;DHT22;800;48.824;9.346;2024-02-28T06:58:09;13.70;55.50
1614;DHT22;800;48.824;9.346;2024-02-28T07:00:35;13.70;55.60
1614;DHT22;800;48.824;9.346;2024-02-28T07:03:01;13.70;55.40
1614;DHT22;800;48.824;9.346;2024-02-28T07:05:26;13.70;55.50
1614;DHT22;800;48.824;9.346;2024-02-28T07:07:52;13.80;55.50
1614;DHT22;800;48.824;9.346;2024-02-28T07:10:17;13.80;55.30
1614;DHT22;800;48.824;9.346;2024-02-28T07:12:43;13.70;55.30
1614;DHT22;800;48.824;9.346;2024-02-28T07:15:08;13.70;55.60
1614;DHT22;800;48.824;9.346;2024-02-28T07:17:34;13.70;55.60
1614;DHT22;800;48.824;9.346;2024-02-28T07:19:59;13.70;55.40
1614;DHT22;800;48.824;9.346;2024-02-28T07:22:25;13.70;55.60
1614;DHT22;800;48.824;9.346;2024-02-28T07:24:51;13.70;55.40
1614;DHT22;800;48.824;9.346;2024-02-28T07:27:16;13.80;55.40
1614;DHT22;800;48.824;9.346;2024-02-28T07:29:42;13.80;55.40
1614;DHT22;800;48.824;9.346;2024-02-28T07:32:07;13.80;55.30
1614;DHT22;800;48.824;9.346;2024-02-28T07:34:33;13.80;55.30
1614;DHT22;800;48.824;9.346;2024-02-28T07:36:59;13.80;55.30
1614;DHT22;800;48.824;9.346;2024-02-28T07:39:25;13.90;55.30
1614;DHT22;800;48.824;9.346;2024-02-28T07:41:50;13.90;55.40
1614;DHT22;800;48.824;9.346;2024-02-28T07:44:16;13.90;55.30
1614;DHT22;800;48.824;9.346;2024-02-28T07:46:42;13.90;55.20
1614;DHT22;800;48.824;9.346;2024-02-28T07:49:08;13.90;55.20
1614;DHT22;800;48.824;9.346;2024-02-28T07:51:33;13.90;55.10
1614;DHT22;800;48.824;9.346;2024-02-28T07:53:59;13.80;55.20
1614;DHT22;800;48.824;9.346;2024-02-28T07:56:25;13.80;55.30
1614;DHT22;800;48.824;9.346;2024-02-28T07:58:50;13.80;55.50
1614;DHT22;800;48.824;9.346;2024-02-28T08:01:16;13.70;55.40
1614;DHT22;800;48.824;9.346;2024-02-28T08:03:42;13.70;55.50
1614;DHT22;800;48.824;9.346;2024-02-28T08:06:08;13.80;55.50
1614;DHT22;800;48.824;9.346;2024-02-28T08:08:37;13.80;55.40
1614;DHT22;800;48.824;9.346;2024-02-28T08:11:02;13.80;55.40
1614;DHT22;800;48.824;9.346;2024-02-28T08:13:28;13.80;55.40
1614;DHT22;800;48.824;9.346;2024-02-28T08:15:55;13.70;55.50
1614;DHT22;800;48.824;9.346;2024-02-28T08:18:20;13.60;55.50
1614;DHT22;800;48.824;9.346;2024-02-28T08:20:46;13.60;55.60
1614;DHT22;800;48.824;9.346;2024-02-28T08:23:11;13.60;55.80
1614;DHT22;800;48.824;9.346;2024-02-28T08:25:37;13.50;56.00
1614;DHT22;800;48.824;9.346;2024-02-28T08:28:03;13.30;56.00
1614;DHT22;800;48.824;9.346;2024-02-28T08:30:29;13.40;56.10
1614;DHT22;800;48.824;9.346;2024-02-28T08:32:54;13.40;55.90
1614;DHT22;800;48.824;9.346;2024-02-28T08:35:20;13.40;56.10
1614;DHT22;800;48.824;9.346;2024-02-28T08:37:45;13.50;56.00
1614;DHT22;800;48.824;9.346;2024-02-28T08:40:11;13.50;55.70
1614;DHT22;800;48.824;9.346;2024-02-28T08:42:37;13.50;55.80
1614;DHT22;800;48.824;9.346;2024-02-28T08:45:03;13.50;55.70
1614;DHT22;800;48.824;9.346;2024-02-28T08:47:31;13.60;55.70
1614;DHT22;800;48.824;9.346;2024-02-28T08:49:57;13.60;55.60
1614;DHT22;800;48.824;9.346;2024-02-28T08:52:22;13.60;55.50
1614;DHT22;800;48.824;9.346;2024-02-28T08:54:48;13.60;55.60
1614;DHT22;800;48.824;9.346;2024-02-28T08:57:14;13.70;55.60
1614;DHT22;800;48.824;9.346;2024-02-28T08:59:40;13.80;55.50
1614;DHT22;800;48.824;9.346;2024-02-28T09:02:06;13.90;55.40
1614;DHT22;800;48.824;9.346;2024-02-28T09:04:33;13.90;55.10
1614;DHT22;800;48.824;9.346;2024-02-28T09:06:58;13.90;54.90
1614;DHT22;800;48.824;9.346;2024-02-28T09:09:24;14.00;55.00
1614;DHT22;800;48.824;9.346;2024-02-28T09:11:49;14.00;54.90
1614;DHT22;800;48.824;9.346;2024-02-28T09:14:15;14.00;55.00
1614;DHT22;800;48.824;9.346;2024-02-28T09:16:41;14.00;55.00
1614;DHT22;800;48.824;9.346;2024-02-28T09:19:06;14.10;55.00
1614;DHT22;800;48.824;9.346;2024-02-28T09:21:32;14.10;54.90
1614;DHT22;800;48.824;9.346;2024-02-28T09:23:57;14.10;54.60
1614;DHT22;800;48.824;9.346;2024-02-28T09:26:23;14.20;54.70
1614;DHT22;800;48.824;9.346;2024-02-28T09:28:48;14.20;54.60
1614;DHT22;800;48.824;9.346;2024-02-28T09:31:14;14.20;54.80
1614;DHT22;800;48.824;9.346;2024-02-28T09:33:41;14.20;54.50
1614;DHT22;800;48.824;9.346;2024-02-28T09:36:06;14.30;54.50
1614;DHT22;800;48.824;9.346;2024-02-28T09:38:32;14.20;54.50
1614;DHT22;800;48.824;9.346;2024-02-28T09:41:00;14.30;54.70
1614;DHT22;800;48.824;9.346;2024-02-28T09:43:30;14.40;54.70
1614;DHT22;800;48.824;9.346;2024-02-28T09:46:05;14.50;54.50
1614;DHT22;800;48.824;9.346;2024-02-28T09:48:32;14.40;54.10
1614;DHT22;800;48.824;9.346;2024-02-28T09:50:57;14.50;54.30
1614;DHT22;800;48.824;9.346;2024-02-28T09:53:23;14.60;53.80
1614;DHT22;800;48.824;9.346;2024-02-28T09:55:52;14.60;53.40
1614;DHT22;800;48.824;9.346;2024-02-28T09:58:19;14.60;53.20
1614;DHT22;800;48.824;9.346;2024-02-28T10:00:46;14.60;53.20
1614;DHT22;800;48.824;9.346;2024-02-28T10:03:14;14.70;53.30
1614;DHT22;800;48.824;9.346;2024-02-28T10:05:42;14.70;53.60
1614;DHT22;800;48.824;9.346;2024-02-28T10:08:08;14.80;53.20
1614;DHT22;800;48.824;9.346;2024-02-28T10:10:37;14.80;53.00
1614;DHT22;800;48.824;9.346;2024-02-28T10:13:03;14.90;52.70
1614;DHT22;800;48.824;9.346;2024-02-28T10:15:30;14.90;52.70
1614;DHT22;800;48.824;9.346;2024-02-28T10:17:56;14.90;52.70
1614;DHT22;800;48.824;9.346;2024-02-28T10:20:21;15.00;52.50
1614;DHT22;800;48.824;9.346;2024-02-28T10:22:47;14.90;52.30
1614;DHT22;800;48.824;9.346;2024-02-28T10:25:13;14.90;52.40
1614;DHT22;800;48.824;9.346;2024-02-28T10:27:40;14.90;52.60
1614;DHT22;800;48.824;9.346;2024-02-28T10:30:06;15.00;53.00
1614;DHT22;800;48.824;9.346;2024-02-28T10:32:33;15.10;52.70
1614;DHT22;800;48.824;9.346;2024-02-28T10:35:02;15.10;52.50
1614;DHT22;800;48.824;9.346;2024-02-28T10:37:29;15.10;52.70
1614;DHT22;800;48.824;9.346;2024-02-28T10:39:57;15.10;53.00
1614;DHT22;800;48.824;9.346;2024-02-28T10:42:29;15.20;52.40
1614;DHT22;800;48.824;9.346;2024-02-28T10:44:55;15.30;52.20
1614;DHT22;800;48.824;9.346;2024-02-28T10:47:24;15.20;51.80
1614;DHT22;800;48.824;9.346;2024-02-28T10:49:50;15.10;51.90
1614;DHT22;800;48.824;9.346;2024-02-28T10:52:18;15.10;52.20
1614;DHT22;800;48.824;9.346;2024-02-28T10:54:52;14.90;52.40
1614;DHT22;800;48.824;9.346;2024-02-28T10:57:19;14.90;52.40
1614;DHT22;800;48.824;9.346;2024-02-28T10:59:47;14.90;52.70
1614;DHT22;800;48.824;9.346;2024-02-28T11:02:13;15.00;52.20
1614;DHT22;800;48.824;9.346;2024-02-28T11:04:39;15.10;52.00
1614;DHT22;800;48.824;9.346;2024-02-28T11:07:05;15.10;52.00
1614;DHT22;800;48.824;9.346;2024-02-28T11:09:31;15.20;51.90
1614;DHT22;800;48.824;9.346;2024-02-28T11:11:57;15.10;51.40
1614;DHT22;800;48.824;9.346;2024-02-28T11:14:23;15.10;51.60
1614;DHT22;800;48.824;9.346;2024-02-28T11:17:02;15.10;52.00
1614;DHT22;800;48.824;9.346;2024-02-28T11:19:29;15.10;52.10
1614;DHT22;800;48.824;9.346;2024-02-28T11:21:59;15.10;52.10
1614;DHT22;800;48.824;9.346;2024-02-28T11:24:31;15.10;51.90
1614;DHT22;800;48.824;9.346;2024-02-28T11:26:57;15.20;51.90
1614;DHT22;800;48.824;9.346;2024-02-28T11:29:27;15.20;51.70
1614;DHT22;800;48.824;9.346;2024-02-28T11:31:54;15.20;52.10
1614;DHT22;800;48.824;9.346;2024-02-28T11:34:20;15.30;52.30
1614;DHT22;800;48.824;9.346;2024-02-28T11:36:49;15.30;52.00
1614;DHT22;800;48.824;9.346;2024-02-28T11:39:17;15.30;51.40
1614;DHT22;800;48.824;9.346;2024-02-28T11:41:43;15.20;51.50
1614;DHT22;800;48.824;9.346;2024-02-28T11:44:15;15.20;51.70
1614;DHT22;800;48.824;9.346;2024-02-28T11:46:48;15.20;51.90
1614;DHT22;800;48.824;9.346;2024-02-28T11:49:14;15.10;52.20
1614;DHT22;800;48.824;9.346;2024-02-28T11:51:43;15.10;52.00
1614;DHT22;800;48.824;9.346;2024-02-28T11:54:09;15.00;51.90
1614;DHT22;800;48.824;9.346;2024-02-28T11:56:39;15.00;52.00
1614;DHT22;800;48.824;9.346;2024-02-28T11:59:05;14.90;52.30
1614;DHT22;800;48.824;9.346;2024-02-28T12:01:41;14.90;52.40
1614;DHT22;800;48.824;9.346;2024-02-28T12:04:07;14.80;52.40
1614;DHT22;800;48.824;9.346;2024-02-28T12:06:34;14.80;52.30
1614;DHT22;800;48.824;9.346;2024-02-28T12:09:00;14.70;52.70
1614;DHT22;800;48.824;9.346;2024-02-28T12:11:26;14.70;52.50
1614;DHT22;800;48.824;9.346;2024-02-28T12:13:55;14.70;52.60
1614;DHT22;800;48.824;9.346;2024-02-28T12:16:27;14.60;52.70
1614;DHT22;800;48.824;9.346;2024-02-28T12:18:53;14.60;52.80
1614;DHT22;800;48.824;9.346;2024-02-28T12:21:19;14.60;52.80
1614;DHT22;800;48.824;9.346;2024-02-28T12:23:46;14.60;53.00
1614;DHT22;800;48.824;9.346;2024-02-28T12:26:12;14.60;52.80
1614;DHT22;800;48.824;9.346;2024-02-28T12:28:37;14.60;52.60
1614;DHT22;800;48.824;9.346;2024-02-28T12:31:03;14.70;52.70
1614;DHT22;800;48.824;9.346;2024-02-28T12:33:30;14.70;52.70
1614;DHT22;800;48.824;9.346;2024-02-28T12:35:55;14.80;52.60
1614;DHT22;800;48.824;9.346;2024-02-28T12:38:22;14.80;52.50
1614;DHT22;800;48.824;9.346;2024-02-28T12:40:48;14.80;52.30
1614;DHT22;800;48.824;9.346;2024-02-28T12:43:13;14.80;52.20
1614;DHT22;800;48.824;9.346;2024-02-28T12:45:39;14.80;52.20
1614;DHT22;800;48.824;9.346;2024-02-28T12:48:05;14.70;52.50
1614;DHT22;800;48.824;9.346;2024-02-28T12:50:31;14.70;53.20
1614;DHT22;800;48.824;9.346;2024-02-28T12:52:59;14.80;52.70
1614;DHT22;800;48.824;9.346;2024-02-28T12:55:25;14.90;52.20
1614;DHT22;800;48.824;9.346;2024-02-28T12:57:51;14.90;51.50
1614;DHT22;800;48.824;9.346;2024-02-28T13:00:17;14.90;51.40
1614;DHT22;800;48.824;9.346;2024-02-28T13:02:43;14.90;51.60
1614;DHT22;800;48.824;9.346;2024-02-28T13:05:10;15.00;51.50
1614;DHT22;800;48.824;9.346;2024-02-28T13:07:36;14.90;51.10
1614;DHT22;800;48.824;9.346;2024-02-28T13:10:02;14.80;51.20
1614;DHT22;800;48.824;9.346;2024-02-28T13:12:30;14.90;51.30
1614;DHT22;800;48.824;9.346;2024-02-28T13:14:56;14.90;51.00
1614;DHT22;800;48.824;9.346;2024-02-28T13:17:22;14.90;50.90
1614;DHT22;800;48.824;9.346;2024-02-28T13:19:47;15.00;50.90
1614;DHT22;800;48.824;9.346;2024-02-28T13:22:13;15.00;50.80
1614;DHT22;800;48.824;9.346;2024-02-28T13:24:38;15.00;50.80
1614;DHT22;800;48.824;9.346;2024-02-28T13:27:04;14.90;50.70
1614;DHT22;800;48.824;9.346;2024-02-28T13:29:30;15.00;50.90
1614;DHT22;800;48.824;9.346;2024-02-28T13:31:58;15.00;50.90
1614;DHT22;800;48.824;9.346;2024-02-28T13:34:23;15.10;51.00
1614;DHT22;800;48.824;9.346;2024-02-28T13:36:49;15.00;50.80
1614;DHT22;800;48.824;9.346;2024-02-28T13:39:15;15.10;50.50
1614;DHT22;800;48.824;9.346;2024-02-28T13:41:41;15.10;50.30
1614;DHT22;800;48.824;9.346;2024-02-28T13:44:07;15.10;50.20
1614;DHT22;800;48.824;9.346;2024-02-28T13:46:34;15.10;50.40
1614;DHT22;800;48.824;9.346;2024-02-28T13:49:00;14.90;50.50
1614;DHT22;800;48.824;9.346;2024-02-28T13:51:26;14.80;50.90
1614;DHT22;800;48.824;9.346;2024-02-28T13:53:52;14.80;51.00
1614;DHT22;800;48.824;9.346;2024-02-28T13:56:19;14.90;51.20
1614;DHT22;800;48.824;9.346;2024-02-28T13:58:45;14.90;51.00
1614;DHT22;800;48.824;9.346;2024-02-28T14:01:10;14.90;50.70
1614;DHT22;800;48.824;9.346;2024-02-28T14:03:36;15.00;51.00
1614;DHT22;800;48.824;9.346;2024-02-28T14:06:02;15.10;50.30
1614;DHT22;800;48.824;9.346;2024-02-28T14:08:28;15.20;50.10
1614;DHT22;800;48.824;9.346;2024-02-28T14:10:53;15.30;50.10
1614;DHT22;800;48.824;9.346;2024-02-28T14:13:19;15.20;50.10
1614;DHT22;800;48.824;9.346;2024-02-28T14:15:45;15.20;50.00
1614;DHT22;800;48.824;9.346;2024-02-28T14:18:11;15.20;50.00
1614;DHT22;800;48.824;9.346;2024-02-28T14:20:37;15.30;50.00
1614;DHT22;800;48.824;9.346;2024-02-28T14:23:04;15.30;49.90
1614;DHT22;800;48.824;9.346;2024-02-28T14:25:30;15.30;50.00
1614;DHT22;800;48.824;9.346;2024-02-28T14:27:56;15.20;50.00
1614;DHT22;800;48.824;9.346;2024-02-28T14:30:22;15.20;50.30
1614;DHT22;800;48.824;9.346;2024-02-28T14:32:48;15.10;50.30
1614;DHT22;800;48.824;9.346;2024-02-28T14:35:16;15.20;50.40
1614;DHT22;800;48.824;9.346;2024-02-28T14:37:42;15.20;50.30
1614;DHT22;800;48.824;9.346;2024-02-28T14:40:09;15.30;50.30
1614;DHT22;800;48.824;9.346;2024-02-28T14:42:42;15.40;50.00
1614;DHT22;800;48.824;9.346;2024-02-28T14:45:09;15.40;49.90
1614;DHT22;800;48.824;9.346;2024-02-28T14:47:41;15.30;49.90
1614;DHT22;800;48.824;9.346;2024-02-28T14:50:08;15.30;50.30
1614;DHT22;800;48.824;9.346;2024-02-28T14:52:37;15.30;49.40
1614;DHT22;800;48.824;9.346;2024-02-28T14:55:03;15.40;49.50
1614;DHT22;800;48.824;9.346;2024-02-28T14:57:29;15.40;49.50
1614;DHT22;800;48.824;9.346;2024-02-28T14:59:59;15.40;49.40
1614;DHT22;800;48.824;9.346;2024-02-28T15:02:25;15.40;49.30
1614;DHT22;800;48.824;9.346;2024-02-28T15:04:51;15.30;49.50
1614;DHT22;800;48.824;9.346;2024-02-28T15:07:16;15.40;49.20
1614;DHT22;800;48.824;9.346;2024-02-28T15:09:42;15.30;49.30
1614;DHT22;800;48.824;9.346;2024-02-28T15:12:08;15.30;49.40
1614;DHT22;800;48.824;9.346;2024-02-28T15:14:34;15.30;49.50
1614;DHT22;800;48.824;9.346;2024-02-28T15:16:59;15.20;49.60
1614;DHT22;800;48.824;9.346;2024-02-28T15:19:25;15.20;49.60
1614;DHT22;800;48.824;9.346;2024-02-28T15:21:55;15.20;49.70
1614;DHT22;800;48.824;9.346;2024-02-28T15:24:22;15.20;49.70
1614;DHT22;800;48.824;9.346;2024-02-28T15:26:47;15.20;49.70
1614;DHT22;800;48.824;9.346;2024-02-28T15:29:14;15.10;49.60
1614;DHT22;800;48.824;9.346;2024-02-28T15:31:39;15.10;49.40
1614;DHT22;800;48.824;9.346;2024-02-28T15:34:05;15.10;49.50
1614;DHT22;800;48.824;9.346;2024-02-28T15:36:31;15.10;49.70
1614;DHT22;800;48.824;9.346;2024-02-28T15:38:56;15.10;49.90
1614;DHT22;800;48.824;9.346;2024-02-28T15:41:22;15.10;50.00
1614;DHT22;800;48.824;9.346;2024-02-28T15:43:49;14.90;49.70
1614;DHT22;800;48.824;9.346;2024-02-28T15:46:14;15.00;49.90
1614;DHT22;800;48.824;9.346;2024-02-28T15:48:40;15.00;50.10
1614;DHT22;800;48.824;9.346;2024-02-28T15:51:07;14.90;50.00
1614;DHT22;800;48.824;9.346;2024-02-28T15:53:32;14.90;50.10
1614;DHT22;800;48.824;9.346;2024-02-28T15:56:00;14.90;50.10
1614;DHT22;800;48.824;9.346;2024-02-28T15:58:26;14.90;50.10
1614;DHT22;800;48.824;9.346;2024-02-28T16:00:52;14.90;50.20
1614;DHT22;800;48.824;9.346;2024-02-28T16:03:18;14.80;50.20
1614;DHT22;800;48.824;9.346;2024-02-28T16:05:44;14.80;50.20
1614;DHT22;800;48.824;9.346;2024-02-28T16:08:09;14.80;50.10
1614;DHT22;800;48.824;9.346;2024-02-28T16:10:35;14.80;50.10